createdAt,value
2023-01-29T16:32:18.238Z,6.77
2023-01-29T16:37:24.381Z,7.50
2023-01-29T16:42:31.280Z,6.90
2023-01-29T16:47:37.411Z,6.60
2023-01-29T16:52:40.237Z,7.33
2023-01-29T16:57:45.182Z,6.77
2023-01-29T17:02:53.423Z,7.80
2023-01-29T17:07:58.979Z,7.83
2023-01-29T17:13:04.826Z,7.50
2023-01-29T17:18:18.428Z,7.40
2023-01-29T17:23:21.723Z,6.60
2023-01-29T17:28:24.429Z,6.77
2023-01-29T17:33:28.463Z,6.80
2023-01-29T17:38:31.124Z,6.20
2023-01-29T17:43:33.994Z,6.63
2023-01-29T17:48:38.088Z,6.73
2023-01-29T17:53:45.842Z,6.07
2023-01-29T17:58:48.799Z,7.10
2023-01-29T18:03:52.919Z,6.63
2023-01-29T18:08:56.262Z,6.67
2023-01-29T18:13:59.197Z,6.87
2023-01-29T18:19:14.528Z,6.87
2023-01-29T18:24:17.733Z,6.93
2023-01-29T18:29:20.460Z,6.67
2023-01-29T18:34:24.481Z,6.63
2023-01-29T18:39:27.201Z,5.93
2023-01-29T18:44:29.862Z,6.73
2023-01-29T18:49:34.162Z,6.20
2023-01-29T18:54:36.834Z,6.33
2023-01-29T18:59:39.642Z,5.87
2023-01-29T19:04:44.215Z,6.47
2023-01-29T19:09:47.012Z,6.97
2023-01-29T19:14:49.750Z,6.40
2023-01-29T19:19:56.279Z,6.77
2023-01-29T19:24:59.413Z,6.30
2023-01-29T19:30:04.505Z,6.73
2023-01-29T19:35:08.981Z,6.57
2023-01-29T19:40:12.385Z,6.70
2023-01-29T19:45:15.268Z,6.77
2023-01-29T19:56:35.227Z,6.50
2023-01-29T21:27:38.531Z,7.07
2023-01-29T21:32:43.992Z,8.07
2023-01-29T21:37:49.458Z,8.17
2023-01-29T21:43:14.755Z,8.70
2023-01-29T21:48:17.763Z,10.00
2023-01-29T21:53:20.932Z,7.73
2023-01-29T21:58:24.946Z,7.93
2023-01-29T22:03:30.059Z,7.90
2023-01-29T22:08:32.836Z,8.17
2023-01-29T22:13:36.889Z,7.73
2023-01-29T22:18:39.634Z,8.33
2023-01-29T22:23:42.529Z,8.30
2023-01-29T22:28:48.254Z,8.57
2023-01-29T22:33:53.204Z,8.70
2023-01-29T22:38:55.942Z,8.43
2023-01-29T22:44:00.141Z,8.10
2023-01-29T22:49:05.203Z,8.07
2023-01-29T22:54:08.024Z,8.10
2023-01-29T22:59:12.204Z,8.30
2023-01-29T23:04:14.958Z,7.73
2023-01-29T23:09:17.632Z,8.10
2023-01-29T23:14:21.658Z,8.77
2023-01-29T23:19:24.340Z,8.23
2023-01-29T23:24:32.561Z,8.33
2023-01-29T23:29:41.874Z,7.63
2023-01-29T23:34:44.701Z,7.37
2023-01-29T23:39:47.389Z,7.03
2023-01-29T23:44:51.399Z,7.40
2023-01-29T23:49:54.146Z,7.83
2023-01-29T23:54:56.848Z,7.40
